Time;durP1;ratioP1;P1;durP2;ratioP2;P2;SDS_P1;SDS_P2;PMS_P1;PMS_P2;Temp;Humidity;BMP_temperature;BMP_pressure;BME280_temperature;BME280_humidity;BME280_pressure;Samples;Min_cycle;Max_cycle;Signal;HPM_P1;HPM_P2
2022/04/24 00:00:18;;;;;;;1.77;1.23;;;10.70;96.80;;;;;;4430191;32;20078;-68
2022/04/24 00:02:44;;;;;;;0.30;0.30;;;10.70;97.10;;;;;;4430266;32;20088;-68
2022/04/24 00:05:10;;;;;;;0.30;0.30;;;10.80;97.10;;;;;;4427874;32;20085;-68
2022/04/24 00:07:35;;;;;;;0.50;0.50;;;10.70;97.00;;;;;;4430807;32;20652;-66
2022/04/24 00:10:01;;;;;;;0.40;0.40;;;10.70;97.30;;;;;;4429659;32;20061;-68
2022/04/24 00:12:27;;;;;;;0.60;0.60;;;10.80;97.10;;;;;;4430915;32;20065;-67
2022/04/24 00:14:52;;;;;;;0.50;0.50;;;10.70;97.30;;;;;;4434850;32;20069;-68
2022/04/24 00:17:20;;;;;;;0.40;0.40;;;10.60;97.40;;;;;;4427120;32;20490;-68
2022/04/24 00:19:46;;;;;;;0.40;0.40;;;10.50;97.70;;;;;;4429904;32;20474;-68
2022/04/24 00:22:12;;;;;;;0.50;0.50;;;10.50;98.00;;;;;;4428754;32;20509;-68
2022/04/24 00:24:37;;;;;;;0.60;0.60;;;10.40;98.10;;;;;;4430330;32;20070;-68
2022/04/24 00:27:03;;;;;;;0.50;0.50;;;10.50;98.30;;;;;;4430780;32;20136;-67
2022/04/24 00:29:28;;;;;;;0.68;0.68;;;10.40;98.30;;;;;;4432207;32;20080;-69
2022/04/24 00:31:54;;;;;;;0.75;0.60;;;10.40;98.40;;;;;;4432400;32;20080;-67
2022/04/24 00:34:20;;;;;;;2.35;0.65;;;10.40;98.60;;;;;;4428730;32;20175;-67
2022/04/24 00:36:45;;;;;;;0.47;0.47;;;10.30;98.60;;;;;;4431925;32;20073;-68
2022/04/24 00:39:11;;;;;;;0.62;0.62;;;10.30;98.80;;;;;;4430250;32;20080;-67
2022/04/24 00:41:45;;;;;;;0.55;0.55;;;10.30;98.90;;;;;;4427585;32;20089;-67
2022/04/24 00:44:11;;;;;;;1.12;0.90;;;10.30;99.20;;;;;;4430221;32;20080;-68
2022/04/24 00:46:42;;;;;;;5.05;1.65;;;10.30;99.30;;;;;;4430377;32;20093;-67
2022/04/24 00:49:09;;;;;;;0.60;0.60;;;10.20;99.40;;;;;;4430270;32;20068;-68
2022/04/24 00:51:36;;;;;;;0.65;0.65;;;10.20;99.40;;;;;;4432343;32;20081;-68
2022/04/24 00:54:01;;;;;;;0.50;0.50;;;10.20;99.60;;;;;;4431753;32;20072;-68
2022/04/24 00:56:31;;;;;;;0.40;0.40;;;10.20;99.70;;;;;;4428369;32;20074;-68
2022/04/24 00:58:58;;;;;;;0.95;0.57;;;10.10;99.80;;;;;;4429499;32;20072;-68
2022/04/24 01:01:24;;;;;;;0.47;0.47;;;10.10;99.90;;;;;;4430654;32;20069;-68
2022/04/24 01:03:49;;;;;;;0.50;0.50;;;10.10;99.90;;;;;;4429480;32;20055;-68
2022/04/24 01:06:15;;;;;;;0.40;0.40;;;10.00;99.90;;;;;;4428840;32;20358;-68
2022/04/24 01:08:40;;;;;;;0.50;0.50;;;10.00;99.90;;;;;;4430531;32;20085;-68
2022/04/24 01:11:06;;;;;;;0.43;0.43;;;10.00;99.90;;;;;;4426287;32;20089;-68
2022/04/24 01:13:31;;;;;;;0.50;0.50;;;9.90;99.90;;;;;;4428813;32;20124;-68
2022/04/24 01:15:57;;;;;;;1.17;0.62;;;9.90;99.90;;;;;;4429329;32;20078;-68
2022/04/24 01:18:24;;;;;;;1.15;0.75;;;10.00;99.90;;;;;;4430253;32;20065;-68
2022/04/24 01:20:50;;;;;;;4.10;0.85;;;9.90;99.90;;;;;;4427028;32;20078;-68
2022/04/24 01:23:15;;;;;;;0.60;0.60;;;9.90;99.90;;;;;;4428367;32;20061;-68
2022/04/24 01:25:41;;;;;;;0.47;0.47;;;9.80;99.90;;;;;;4428448;32;20415;-69
2022/04/24 01:28:08;;;;;;;7.10;2.05;;;9.70;99.90;;;;;;4432171;32;20073;-67
2022/04/24 01:30:34;;;;;;;0.32;0.32;;;9.60;99.90;;;;;;4431712;32;20077;-68
2022/04/24 01:33:01;;;;;;;0.47;0.47;;;9.60;99.90;;;;;;4430034;32;20098;-68
2022/04/24 01:35:27;;;;;;;0.73;0.60;;;9.60;99.90;;;;;;4429203;32;20534;-68
2022/04/24 01:37:55;;;;;;;0.98;0.50;;;9.60;99.90;;;;;;4429501;32;20078;-68
2022/04/24 01:40:21;;;;;;;1.30;0.90;;;9.60;99.90;;;;;;4432958;32;20798;-68
2022/04/24 01:42:46;;;;;;;0.30;0.30;;;9.60;99.90;;;;;;4429575;32;20088;-67
2022/04/24 01:45:12;;;;;;;0.90;0.90;;;9.60;99.90;;;;;;4430688;32;20081;-67
2022/04/24 01:47:37;;;;;;;5.18;0.68;;;9.50;99.90;;;;;;4432593;32;20148;-69
2022/04/24 01:50:03;;;;;;;0.37;0.37;;;9.60;99.90;;;;;;4429957;32;20065;-69
2022/04/24 01:52:28;;;;;;;0.80;0.80;;;9.60;99.90;;;;;;4431701;32;20489;-69
2022/04/24 01:54:54;;;;;;;0.80;0.73;;;9.50;99.90;;;;;;4429519;32;20504;-69
2022/04/24 01:57:19;;;;;;;1.25;0.50;;;9.40;99.90;;;;;;4434174;32;20081;-68
2022/04/24 01:59:45;;;;;;;12.25;0.90;;;9.40;99.90;;;;;;4433117;32;20140;-69
2022/04/24 02:02:10;;;;;;;0.60;0.60;;;9.30;99.90;;;;;;4430894;32;20427;-69
2022/04/24 02:04:35;;;;;;;0.65;0.65;;;9.20;99.90;;;;;;4429201;32;20130;-68
2022/04/24 02:07:01;;;;;;;0.40;0.40;;;9.30;99.90;;;;;;4431906;32;20130;-68
2022/04/24 02:09:27;;;;;;;3.17;0.95;;;9.30;99.90;;;;;;4428578;32;20124;-68
2022/04/24 02:11:52;;;;;;;0.40;0.40;;;9.30;99.90;;;;;;4433534;32;20082;-69
2022/04/24 02:14:18;;;;;;;0.77;0.77;;;9.30;99.90;;;;;;4430617;32;20065;-68
2022/04/24 02:16:43;;;;;;;0.55;0.55;;;9.30;99.90;;;;;;4431077;32;20077;-69
2022/04/24 02:19:08;;;;;;;1.25;0.90;;;9.20;99.90;;;;;;4433943;32;20790;-67
2022/04/24 02:21:34;;;;;;;0.85;0.85;;;9.00;99.90;;;;;;4432930;32;20072;-68
2022/04/24 02:23:59;;;;;;;0.65;0.65;;;9.00;99.90;;;;;;4428667;32;20091;-68
2022/04/24 02:26:25;;;;;;;0.98;0.57;;;9.10;99.90;;;;;;4432124;32;20093;-69
2022/04/24 02:28:50;;;;;;;2.50;0.90;;;9.00;99.90;;;;;;4431550;32;20459;-68
2022/04/24 02:31:16;;;;;;;0.40;0.40;;;9.00;99.90;;;;;;4434256;32;20086;-68
2022/04/24 02:33:41;;;;;;;0.50;0.50;;;8.90;99.90;;;;;;4432732;32;20135;-69
2022/04/24 02:36:07;;;;;;;0.32;0.32;;;8.80;99.90;;;;;;4432414;32;20524;-69
2022/04/24 02:38:32;;;;;;;0.50;0.50;;;8.80;99.90;;;;;;4431862;32;20089;-68
2022/04/24 02:40:58;;;;;;;0.50;0.50;;;8.80;99.90;;;;;;4432594;32;20065;-68
2022/04/24 02:43:24;;;;;;;0.60;0.60;;;8.80;99.90;;;;;;4430497;32;20097;-68
2022/04/24 02:45:49;;;;;;;0.57;0.52;;;8.80;99.90;;;;;;4433400;32;20438;-68
2022/04/24 02:48:15;;;;;;;0.85;0.40;;;8.80;99.90;;;;;;4430088;32;20434;-68
2022/04/24 02:50:40;;;;;;;0.60;0.60;;;8.80;99.90;;;;;;4430489;32;20065;-68
2022/04/24 02:53:07;;;;;;;2.00;1.50;;;8.80;99.90;;;;;;4433957;32;20124;-68
2022/04/24 02:55:33;;;;;;;0.30;0.30;;;8.70;99.90;;;;;;4430120;32;20077;-69
2022/04/24 02:57:58;;;;;;;0.75;0.75;;;8.70;99.90;;;;;;4428176;32;20061;-69
2022/04/24 03:00:39;;;;;;;0.50;0.50;;;8.50;99.90;;;;;;4432140;32;20089;-69
2022/04/24 03:03:05;;;;;;;0.68;0.65;;;8.60;99.90;;;;;;4431321;32;20165;-69
2022/04/24 03:05:30;;;;;;;1.37;1.20;;;8.50;99.90;;;;;;4429103;32;20085;-69
2022/04/24 03:07:56;;;;;;;0.40;0.40;;;8.50;99.90;;;;;;4433712;32;20127;-68
2022/04/24 03:10:21;;;;;;;0.65;0.60;;;8.50;99.90;;;;;;4433063;32;20077;-68
2022/04/24 03:12:47;;;;;;;0.43;0.43;;;8.50;99.90;;;;;;4430440;32;20127;-69
2022/04/24 03:15:14;;;;;;;0.50;0.50;;;8.50;99.90;;;;;;4434307;32;20082;-68
2022/04/24 03:17:40;;;;;;;0.70;0.70;;;8.50;99.90;;;;;;4430480;32;20438;-68
2022/04/24 03:20:07;;;;;;;1.17;0.68;;;8.40;99.90;;;;;;4431429;32;20061;-68
2022/04/24 03:22:33;;;;;;;0.65;0.65;;;8.40;99.90;;;;;;4431809;32;20074;-69
2022/04/24 03:24:59;;;;;;;0.60;0.60;;;8.40;99.90;;;;;;4427269;32;20094;-68
2022/04/24 03:27:25;;;;;;;0.50;0.50;;;8.30;99.90;;;;;;4432729;32;20131;-68
2022/04/24 03:29:50;;;;;;;0.60;0.60;;;8.30;99.90;;;;;;4432123;32;20931;-69
2022/04/24 03:32:16;;;;;;;0.40;0.40;;;8.30;99.90;;;;;;4430812;32;20131;-68
2022/04/24 03:34:41;;;;;;;0.93;0.93;;;8.30;99.90;;;;;;4430296;32;20074;-68
2022/04/24 03:37:07;;;;;;;1.50;1.33;;;8.20;99.90;;;;;;4428352;32;20513;-69
2022/04/24 03:39:32;;;;;;;0.80;0.75;;;8.30;99.90;;;;;;4429246;32;20069;-69
2022/04/24 03:41:58;;;;;;;0.35;0.35;;;8.30;99.90;;;;;;4428317;32;20086;-68
2022/04/24 03:44:24;;;;;;;0.50;0.50;;;8.30;99.90;;;;;;4428945;32;20560;-69
2022/04/24 03:46:49;;;;;;;0.50;0.50;;;8.20;99.90;;;;;;4429111;32;20481;-68
2022/04/24 03:49:16;;;;;;;0.40;0.40;;;8.10;99.90;;;;;;4431000;32;20073;-67
2022/04/24 03:51:41;;;;;;;0.40;0.40;;;8.10;99.90;;;;;;4430661;32;20078;-69
2022/04/24 03:54:07;;;;;;;4.57;1.12;;;8.20;99.90;;;;;;4429284;32;20077;-67
2022/04/24 03:56:32;;;;;;;0.50;0.50;;;8.20;99.90;;;;;;4432072;32;20407;-68
2022/04/24 03:58:58;;;;;;;0.35;0.35;;;8.10;99.90;;;;;;4431892;32;20142;-68
2022/04/24 04:01:24;;;;;;;0.50;0.50;;;8.00;99.90;;;;;;4430088;32;20062;-68
2022/04/24 04:03:50;;;;;;;0.45;0.45;;;8.00;99.90;;;;;;4433339;32;20073;-68
2022/04/24 04:06:15;;;;;;;1.95;1.52;;;8.10;99.90;;;;;;4431792;32;20088;-67
2022/04/24 04:08:41;;;;;;;1.58;0.93;;;8.00;99.90;;;;;;4431137;32;20085;-68
2022/04/24 04:11:08;;;;;;;1.48;0.80;;;8.00;99.90;;;;;;4430425;32;20081;-67
2022/04/24 04:13:34;;;;;;;0.55;0.55;;;8.00;99.90;;;;;;4428576;32;20065;-67
2022/04/24 04:16:00;;;;;;;0.52;0.52;;;8.10;99.90;;;;;;4429957;32;20072;-67
2022/04/24 04:18:26;;;;;;;0.82;0.70;;;8.10;99.90;;;;;;4430158;32;20081;-66
2022/04/24 04:20:51;;;;;;;0.40;0.40;;;8.10;99.90;;;;;;4428604;32;20104;-67
2022/04/24 04:23:17;;;;;;;1.37;1.05;;;8.10;99.90;;;;;;4429155;32;20058;-67
2022/04/24 04:25:42;;;;;;;0.45;0.45;;;8.00;99.90;;;;;;4431599;32;20081;-68
2022/04/24 04:28:08;;;;;;;2.53;1.55;;;8.00;99.90;;;;;;4429964;32;20509;-69
2022/04/24 04:30:33;;;;;;;0.45;0.45;;;8.00;99.90;;;;;;4431174;32;20074;-67
2022/04/24 04:32:59;;;;;;;0.50;0.50;;;7.90;99.90;;;;;;4430867;32;20061;-67
2022/04/24 04:35:25;;;;;;;0.40;0.40;;;8.00;99.90;;;;;;4430459;32;20089;-68
2022/04/24 04:37:50;;;;;;;1.05;0.82;;;8.00;99.90;;;;;;4428629;32;20069;-68
2022/04/24 04:40:18;;;;;;;0.40;0.40;;;8.10;99.90;;;;;;4430847;32;20643;-68
2022/04/24 04:42:44;;;;;;;0.70;0.70;;;8.00;99.90;;;;;;4427741;32;20521;-68
2022/04/24 04:45:09;;;;;;;3.00;1.42;;;8.10;99.90;;;;;;4429621;32;20081;-68
2022/04/24 04:47:35;;;;;;;4.03;1.95;;;8.20;99.90;;;;;;4428979;32;20461;-68
2022/04/24 04:50:02;;;;;;;0.75;0.75;;;8.30;99.90;;;;;;4429875;32;20099;-68
2022/04/24 04:52:27;;;;;;;0.77;0.68;;;8.20;99.90;;;;;;4429075;32;20077;-68
2022/04/24 04:54:53;;;;;;;0.95;0.88;;;8.10;99.90;;;;;;4431795;32;20077;-68
2022/04/24 04:57:18;;;;;;;0.77;0.77;;;8.10;99.90;;;;;;4430526;32;20081;-68
2022/04/24 04:59:44;;;;;;;0.50;0.50;;;8.10;99.90;;;;;;4431343;32;20077;-68
2022/04/24 05:02:09;;;;;;;0.50;0.50;;;8.10;99.90;;;;;;4431215;32;20061;-68
2022/04/24 05:04:35;;;;;;;0.75;0.75;;;8.20;99.90;;;;;;4431118;32;20124;-68
2022/04/24 05:07:00;;;;;;;2.92;2.05;;;8.30;99.90;;;;;;4429715;32;20081;-68
2022/04/24 05:09:26;;;;;;;0.50;0.50;;;8.30;99.90;;;;;;4428359;32;20097;-68
2022/04/24 05:11:51;;;;;;;0.60;0.60;;;8.30;99.90;;;;;;4427603;32;20473;-68
2022/04/24 05:14:17;;;;;;;0.73;0.73;;;8.30;99.90;;;;;;4429099;32;20084;-68
2022/04/24 05:16:42;;;;;;;1.45;1.25;;;8.40;99.90;;;;;;4428258;32;20168;-68
2022/04/24 05:19:08;;;;;;;0.50;0.50;;;8.40;99.90;;;;;;4430745;32;20074;-68
2022/04/24 05:21:34;;;;;;;0.68;0.68;;;8.50;99.90;;;;;;4428029;32;20439;-68
2022/04/24 05:24:00;;;;;;;0.93;0.90;;;8.50;99.90;;;;;;4427653;32;20081;-68
2022/04/24 05:26:26;;;;;;;0.70;0.70;;;8.50;99.90;;;;;;4429714;32;20085;-68
2022/04/24 05:28:52;;;;;;;0.62;0.62;;;8.50;99.90;;;;;;4428706;32;20471;-68
2022/04/24 05:31:18;;;;;;;0.50;0.50;;;8.60;99.90;;;;;;4429649;32;20081;-68
2022/04/24 05:33:43;;;;;;;0.82;0.82;;;8.70;99.90;;;;;;4429844;32;20064;-68
2022/04/24 05:36:09;;;;;;;0.30;0.30;;;8.80;99.90;;;;;;4428577;32;20541;-68
2022/04/24 05:38:34;;;;;;;0.68;0.68;;;8.80;99.90;;;;;;4428928;32;20082;-68
2022/04/24 05:41:00;;;;;;;0.50;0.50;;;8.90;99.90;;;;;;4427962;32;20093;-68
2022/04/24 05:43:25;;;;;;;2.12;0.95;;;9.00;99.90;;;;;;4430799;32;20087;-68
2022/04/24 05:45:51;;;;;;;0.40;0.40;;;9.10;99.90;;;;;;4427774;32;20162;-67
2022/04/24 05:48:18;;;;;;;24.10;0.90;;;9.30;99.90;;;;;;4430563;32;21268;-68
2022/04/24 05:50:44;;;;;;;2.40;1.23;;;9.30;99.90;;;;;;4432418;32;20080;-68
2022/04/24 05:53:10;;;;;;;1.23;0.88;;;9.30;99.90;;;;;;4426861;32;20072;-67
2022/04/24 05:55:36;;;;;;;0.50;0.50;;;9.30;99.90;;;;;;4430099;32;20064;-68
2022/04/24 05:58:02;;;;;;;0.82;0.82;;;9.40;99.90;;;;;;4429305;32;20125;-68
2022/04/24 06:00:27;;;;;;;1.65;0.80;;;9.40;99.90;;;;;;4430754;32;20078;-68
2022/04/24 06:02:53;;;;;;;0.47;0.47;;;9.60;99.90;;;;;;4430545;32;20225;-69
2022/04/24 06:05:19;;;;;;;1.37;0.80;;;9.70;99.90;;;;;;4426899;32;20078;-68
2022/04/24 06:07:44;;;;;;;0.73;0.73;;;9.80;99.90;;;;;;4429697;32;20422;-69
2022/04/24 06:10:11;;;;;;;0.57;0.57;;;9.90;99.90;;;;;;4435084;32;20062;-68
2022/04/24 06:12:54;;;;;;;2.67;1.58;;;10.00;99.90;;;;;;4429762;32;20620;-68
2022/04/24 06:15:24;;;;;;;0.60;0.60;;;10.00;99.90;;;;;;4422033;32;20085;-68
2022/04/24 06:17:51;;;;;;;0.70;0.70;;;10.00;99.90;;;;;;4431589;32;20108;-69
2022/04/24 06:20:17;;;;;;;0.88;0.80;;;10.10;99.90;;;;;;4431059;32;20106;-69
2022/04/24 06:22:45;;;;;;;1.10;1.02;;;10.20;99.90;;;;;;4431493;32;20459;-68
2022/04/24 06:25:16;;;;;;;6.07;1.92;;;10.30;99.90;;;;;;4430494;32;20117;-68
2022/04/24 06:27:42;;;;;;;2.05;1.80;;;10.30;99.90;;;;;;4429765;32;20073;-69
2022/04/24 06:30:09;;;;;;;1.20;0.68;;;10.50;99.90;;;;;;4434016;32;20068;-68
2022/04/24 06:32:39;;;;;;;1.15;1.00;;;10.40;99.90;;;;;;4430852;32;20061;-69
2022/04/24 06:35:05;;;;;;;0.60;0.60;;;10.40;99.90;;;;;;4431715;32;20124;-68
2022/04/24 06:37:31;;;;;;;11.75;0.98;;;10.30;99.90;;;;;;4428987;32;20101;-69
2022/04/24 06:39:56;;;;;;;0.62;0.60;;;10.30;99.90;;;;;;4429662;32;20671;-68
2022/04/24 06:42:22;;;;;;;0.80;0.80;;;10.30;99.90;;;;;;4429751;32;20085;-69
2022/04/24 06:44:48;;;;;;;0.45;0.45;;;10.30;99.90;;;;;;4432598;32;20078;-68
2022/04/24 06:47:13;;;;;;;2.10;0.80;;;10.30;99.90;;;;;;4428548;32;20140;-69
2022/04/24 06:49:39;;;;;;;2.17;0.85;;;10.30;99.90;;;;;;4428174;32;20081;-69
2022/04/24 06:52:05;;;;;;;1.05;0.93;;;10.40;99.90;;;;;;4431503;32;20097;-69
2022/04/24 06:54:30;;;;;;;0.62;0.62;;;10.40;99.90;;;;;;4428565;32;20081;-69
2022/04/24 06:57:01;;;;;;;1.05;0.62;;;10.50;99.90;;;;;;4430013;32;20076;-69
2022/04/24 06:59:27;;;;;;;0.43;0.43;;;10.60;99.90;;;;;;4431645;32;20081;-68
2022/04/24 07:01:52;;;;;;;2.50;0.77;;;10.90;99.90;;;;;;4430027;32;20513;-68
2022/04/24 07:04:18;;;;;;;0.52;0.52;;;11.00;99.90;;;;;;4429237;32;20115;-69
2022/04/24 07:06:43;;;;;;;0.70;0.70;;;11.20;99.90;;;;;;4429610;32;20078;-69
2022/04/24 07:09:10;;;;;;;0.70;0.70;;;11.40;99.90;;;;;;4429692;32;20197;-69
2022/04/24 07:11:36;;;;;;;0.70;0.70;;;11.50;99.90;;;;;;4431274;32;20464;-69
2022/04/24 07:14:01;;;;;;;0.50;0.50;;;11.50;99.90;;;;;;4431830;32;20116;-68
2022/04/24 07:16:27;;;;;;;1.10;0.95;;;11.50;99.90;;;;;;4430049;32;20184;-68
2022/04/24 07:18:52;;;;;;;0.80;0.80;;;11.50;99.90;;;;;;4431890;32;20081;-68
2022/04/24 07:21:18;;;;;;;1.73;0.88;;;11.50;99.90;;;;;;4432258;32;20108;-68
2022/04/24 07:23:43;;;;;;;1.23;0.80;;;11.50;99.90;;;;;;4430496;32;20582;-68
2022/04/24 07:26:09;;;;;;;1.60;0.88;;;11.70;99.90;;;;;;4429090;32;20089;-68
2022/04/24 07:28:35;;;;;;;0.75;0.75;;;11.70;99.90;;;;;;4428625;32;20097;-68
2022/04/24 07:31:00;;;;;;;1.10;0.90;;;11.90;99.90;;;;;;4432313;32;20101;-68
2022/04/24 07:33:26;;;;;;;1.20;0.95;;;12.00;99.90;;;;;;4427984;32;20101;-68
2022/04/24 07:35:51;;;;;;;1.17;1.10;;;12.10;99.90;;;;;;4427176;32;84798;-68
2022/04/24 07:38:17;;;;;;;0.65;0.65;;;12.10;99.90;;;;;;4432921;32;20143;-68
2022/04/24 07:40:42;;;;;;;0.50;0.50;;;12.20;99.90;;;;;;4433772;32;20073;-68
2022/04/24 07:43:10;;;;;;;0.77;0.77;;;12.20;99.90;;;;;;4431129;32;20049;-68
2022/04/24 07:45:39;;;;;;;0.50;0.50;;;12.30;99.90;;;;;;4430618;32;20529;-68
2022/04/24 07:48:07;;;;;;;3.53;0.65;;;12.40;99.90;;;;;;4430349;32;20823;-68
2022/04/24 07:50:36;;;;;;;1.87;1.08;;;12.60;99.90;;;;;;4430648;32;20559;-68
2022/04/24 07:53:03;;;;;;;0.55;0.55;;;12.80;99.90;;;;;;4430379;32;20543;-68
2022/04/24 07:55:29;;;;;;;3.28;1.30;;;13.00;99.90;;;;;;4428272;32;20065;-68
2022/04/24 07:57:57;;;;;;;0.73;0.73;;;13.20;99.90;;;;;;4429886;32;20117;-68
2022/04/24 08:00:24;;;;;;;4.40;1.10;;;13.30;99.90;;;;;;4434300;32;20081;-68
2022/04/24 08:02:54;;;;;;;0.80;0.80;;;13.40;99.90;;;;;;4433987;32;20057;-68
2022/04/24 08:05:23;;;;;;;0.40;0.40;;;13.50;99.90;;;;;;4428555;32;20085;-68
2022/04/24 08:07:49;;;;;;;0.65;0.52;;;13.40;99.90;;;;;;4428469;32;20776;-68
2022/04/24 08:10:15;;;;;;;4.47;1.60;;;13.50;99.90;;;;;;4431476;32;20079;-68
2022/04/24 08:12:40;;;;;;;0.62;0.62;;;13.60;99.90;;;;;;4429926;32;20090;-68
2022/04/24 08:15:06;;;;;;;0.40;0.40;;;13.70;99.90;;;;;;4429554;32;20074;-68
2022/04/24 08:17:31;;;;;;;0.80;0.55;;;13.70;99.90;;;;;;4430926;32;20104;-69
2022/04/24 08:19:57;;;;;;;0.40;0.40;;;13.70;99.90;;;;;;4430270;32;20069;-68
2022/04/24 08:22:22;;;;;;;1.00;0.62;;;13.80;99.70;;;;;;4435635;32;20108;-68
2022/04/24 08:24:48;;;;;;;0.62;0.62;;;13.90;99.90;;;;;;4432825;32;20550;-68
2022/04/24 08:27:13;;;;;;;8.32;0.80;;;14.00;99.80;;;;;;4425754;32;20120;-68
2022/04/24 08:29:39;;;;;;;1.17;0.98;;;14.00;99.20;;;;;;4428635;32;20094;-68
2022/04/24 08:32:04;;;;;;;0.50;0.50;;;14.10;98.30;;;;;;4430521;32;21373;-68
2022/04/24 08:34:30;;;;;;;1.55;1.10;;;14.30;98.90;;;;;;4429357;32;20108;-68
2022/04/24 08:36:55;;;;;;;3.20;1.20;;;14.50;97.80;;;;;;4430542;32;20124;-68
2022/04/24 08:39:21;;;;;;;3.35;1.00;;;14.60;97.60;;;;;;4429310;32;20572;-68
2022/04/24 08:41:46;;;;;;;1.05;0.70;;;14.70;97.90;;;;;;4430696;32;20089;-68
2022/04/24 08:44:12;;;;;;;1.05;0.90;;;14.80;97.80;;;;;;4430914;32;20050;-68
2022/04/24 08:46:38;;;;;;;0.68;0.68;;;15.00;97.50;;;;;;4428552;32;20120;-68
2022/04/24 08:49:05;;;;;;;0.95;0.70;;;15.10;97.10;;;;;;4425369;32;20084;-68
2022/04/24 08:51:32;;;;;;;0.65;0.65;;;15.20;96.70;;;;;;4426498;32;20127;-68
2022/04/24 08:53:58;;;;;;;2.80;0.85;;;15.40;96.70;;;;;;4429544;32;20085;-68
2022/04/24 08:56:23;;;;;;;0.50;0.50;;;15.50;96.30;;;;;;4426953;32;20455;-68
2022/04/24 08:58:49;;;;;;;0.70;0.70;;;15.70;95.30;;;;;;4428678;32;20093;-69
2022/04/24 09:01:14;;;;;;;0.68;0.68;;;15.70;94.90;;;;;;4432269;32;20081;-68
2022/04/24 09:03:40;;;;;;;0.60;0.60;;;15.80;95.80;;;;;;4428309;32;20103;-68
2022/04/24 09:06:06;;;;;;;0.50;0.50;;;15.90;94.70;;;;;;4429716;32;20093;-68
2022/04/24 09:08:35;;;;;;;0.68;0.68;;;16.00;94.70;;;;;;4427051;32;20085;-68
2022/04/24 09:11:01;;;;;;;0.50;0.50;;;16.10;94.60;;;;;;4431234;32;20085;-68
2022/04/24 09:13:29;;;;;;;2.20;0.60;;;16.30;93.90;;;;;;4427395;32;20089;-68
2022/04/24 09:15:56;;;;;;;0.50;0.50;;;16.50;93.60;;;;;;4429083;32;20116;-68
2022/04/24 09:18:22;;;;;;;0.60;0.60;;;16.40;92.70;;;;;;4428119;32;20455;-68
2022/04/24 09:20:54;;;;;;;1.00;0.82;;;16.70;92.90;;;;;;4429288;32;20132;-68
2022/04/24 09:23:20;;;;;;;0.50;0.50;;;16.90;92.80;;;;;;4429908;32;20442;-68
2022/04/24 09:25:46;;;;;;;3.10;0.50;;;17.00;92.10;;;;;;4429704;32;20073;-68
2022/04/24 09:28:11;;;;;;;0.95;0.43;;;17.00;92.80;;;;;;4432093;32;20089;-68
2022/04/24 09:30:48;;;;;;;0.77;0.57;;;17.30;92.70;;;;;;4433569;32;20069;-68
2022/04/24 09:33:14;;;;;;;0.75;0.75;;;17.40;91.30;;;;;;4427553;32;20124;-68
2022/04/24 09:35:41;;;;;;;0.62;0.60;;;17.70;91.60;;;;;;4428248;32;20128;-68
2022/04/24 09:38:08;;;;;;;0.93;0.88;;;17.90;91.10;;;;;;4429917;32;20120;-68
2022/04/24 09:40:38;;;;;;;0.60;0.60;;;17.90;90.80;;;;;;4433108;32;20077;-68
2022/04/24 09:43:04;;;;;;;0.50;0.50;;;18.00;90.40;;;;;;4428772;32;20072;-68
2022/04/24 09:45:29;;;;;;;2.65;0.55;;;18.30;90.40;;;;;;4430308;32;20061;-68
2022/04/24 09:47:59;;;;;;;0.40;0.40;;;18.40;90.40;;;;;;4428445;32;20085;-68
2022/04/24 09:50:29;;;;;;;1.70;1.10;;;18.50;89.70;;;;;;4433244;32;20097;-68
2022/04/24 09:52:57;;;;;;;1.30;0.87;;;18.50;88.00;;;;;;4432902;32;20060;-68
2022/04/24 09:55:24;;;;;;;2.17;1.12;;;18.40;86.90;;;;;;4433371;32;20069;-68
2022/04/24 09:57:51;;;;;;;0.50;0.50;;;18.30;87.50;;;;;;4430824;32;20089;-68
2022/04/24 10:00:17;;;;;;;1.40;0.47;;;18.60;86.30;;;;;;4431556;32;20102;-68
2022/04/24 10:02:43;;;;;;;0.80;0.80;;;18.50;85.90;;;;;;4431534;32;20505;-68
2022/04/24 10:05:09;;;;;;;1.10;0.62;;;18.40;87.10;;;;;;4431286;32;20135;-69
2022/04/24 10:07:35;;;;;;;0.60;0.60;;;18.70;88.30;;;;;;4430643;32;20109;-69
2022/04/24 10:10:01;;;;;;;0.45;0.45;;;18.90;88.10;;;;;;4432719;32;20068;-69
2022/04/24 10:12:26;;;;;;;0.80;0.50;;;18.80;84.10;;;;;;4429232;32;20070;-69
2022/04/24 10:14:57;;;;;;;0.45;0.45;;;18.40;85.80;;;;;;4431835;32;20410;-68
2022/04/24 10:17:39;;;;;;;0.73;0.73;;;18.60;85.60;;;;;;4431906;32;20442;-68
2022/04/24 10:20:33;;;;;;;0.60;0.60;;;18.70;84.20;;;;;;4431470;32;20422;-68
2022/04/24 10:22:59;;;;;;;0.47;0.47;;;18.80;82.90;;;;;;4428900;32;20109;-69
2022/04/24 10:25:30;;;;;;;0.52;0.52;;;18.70;82.40;;;;;;4433850;32;20053;-69
2022/04/24 10:27:56;;;;;;;0.50;0.50;;;18.70;84.50;;;;;;4429911;32;20084;-69
2022/04/24 10:30:24;;;;;;;0.75;0.75;;;18.90;84.10;;;;;;4428214;32;20085;-69
2022/04/24 10:33:10;;;;;;;0.40;0.40;;;18.80;82.40;;;;;;4429537;32;20060;-68
2022/04/24 10:35:48;;;;;;;0.65;0.65;;;18.80;80.80;;;;;;4428549;32;20061;-68
2022/04/24 10:38:14;;;;;;;1.70;1.15;;;18.80;79.40;;;;;;4431908;32;20081;-68
2022/04/24 10:40:39;;;;;;;0.50;0.50;;;18.60;79.80;;;;;;4428132;32;20111;-68
2022/04/24 10:43:10;;;;;;;0.70;0.70;;;18.60;81.50;;;;;;4434161;32;20077;-69
2022/04/24 10:45:51;;;;;;;;;;;18.60;80.80;;;;;;4429850;32;20062;-68
2022/04/24 10:48:17;;;;;;;0.50;0.50;;;19.10;81.90;;;;;;4429939;32;20125;-68
2022/04/24 10:50:47;;;;;;;0.50;0.50;;;19.20;79.70;;;;;;4430769;32;20093;-68
2022/04/24 10:53:13;;;;;;;0.98;0.50;;;18.90;79.10;;;;;;4433054;32;20930;-69
2022/04/24 10:55:39;;;;;;;8.57;0.70;;;19.00;78.90;;;;;;4432200;32;20080;-69
2022/04/24 10:58:05;;;;;;;0.45;0.45;;;18.60;78.40;;;;;;4427383;32;20074;-69
2022/04/24 11:00:34;;;;;;;1.10;1.00;;;18.40;79.00;;;;;;4430576;32;20422;-68
2022/04/24 11:03:15;;;;;;;0.40;0.40;;;18.30;78.60;;;;;;4433460;32;20123;-69
2022/04/24 11:05:44;;;;;;;0.50;0.50;;;18.40;80.40;;;;;;4425513;32;20085;-67
2022/04/24 11:08:18;;;;;;;0.30;0.30;;;18.60;80.70;;;;;;4428352;32;20553;-67
2022/04/24 11:10:45;;;;;;;0.65;0.62;;;18.80;79.30;;;;;;4430441;32;20541;-68
2022/04/24 11:13:13;;;;;;;0.50;0.50;;;19.30;77.80;;;;;;4431852;32;20088;-68
2022/04/24 11:15:42;;;;;;;0.40;0.40;;;19.20;77.10;;;;;;4430825;32;20093;-68
2022/04/24 11:18:18;;;;;;;0.50;0.50;;;18.90;77.90;;;;;;4428203;32;20105;-68
2022/04/24 11:20:55;;;;;;;0.60;0.60;;;18.60;79.30;;;;;;4430498;32;20065;-68
2022/04/24 11:23:24;;;;;;;0.40;0.40;;;18.20;79.70;;;;;;4428638;32;20057;-68
2022/04/24 11:25:53;;;;;;;0.40;0.40;;;18.10;81.40;;;;;;4428662;32;20078;-68
2022/04/24 11:28:18;;;;;;;2.50;0.77;;;18.30;82.70;;;;;;4429998;32;20070;-69
2022/04/24 11:30:44;;;;;;;0.90;0.73;;;18.50;81.40;;;;;;4433512;32;20073;-69
2022/04/24 11:33:09;;;;;;;1.92;1.25;;;18.40;81.60;;;;;;4431920;32;20065;-68
2022/04/24 11:35:37;;;;;;;0.40;0.40;;;18.50;81.90;;;;;;4430888;32;20085;-67
2022/04/24 11:38:04;;;;;;;0.32;0.32;;;18.60;80.20;;;;;;4428978;32;20094;-68
2022/04/24 11:40:30;;;;;;;0.45;0.45;;;18.50;80.50;;;;;;4427563;32;20502;-69
2022/04/24 11:43:04;;;;;;;0.80;0.80;;;18.60;81.70;;;;;;4431577;32;20061;-68
2022/04/24 11:50:35;;;;;;;1.35;1.02;;;18.20;81.40;;;;;;4424675;32;20512;-70
2022/04/24 11:51:20;;;;;;;;;;;18.30;81.80;;;;;;4430845;32;20540;-68
2022/04/24 11:53:46;;;;;;;0.30;0.30;;;18.50;81.80;;;;;;4422366;32;20393;-69
2022/04/24 11:56:13;;;;;;;0.35;0.35;;;18.70;79.20;;;;;;4427970;32;20073;-69
2022/04/24 11:58:41;;;;;;;0.45;0.45;;;19.30;78.30;;;;;;4432008;32;20476;-68
2022/04/24 12:01:09;;;;;;;1.00;0.70;;;19.60;76.70;;;;;;4432507;32;20120;-69
2022/04/24 12:03:36;;;;;;;0.35;0.35;;;19.60;77.20;;;;;;4433432;32;20069;-68
2022/04/24 12:06:04;;;;;;;0.50;0.50;;;19.90;76.80;;;;;;4429282;32;20421;-69
2022/04/24 12:08:49;;;;;;;0.30;0.30;;;20.40;76.00;;;;;;4431600;32;20069;-69
2022/04/24 12:11:30;;;;;;;0.40;0.40;;;20.10;75.20;;;;;;4428862;32;20073;-68
2022/04/24 12:14:03;;;;;;;0.60;0.60;;;19.40;74.20;;;;;;4426705;32;20602;-68
2022/04/24 12:16:29;;;;;;;0.55;0.40;;;19.30;74.60;;;;;;4431231;32;20073;-68
2022/04/24 12:18:56;;;;;;;0.40;0.40;;;19.10;76.00;;;;;;4432257;32;20060;-68
2022/04/24 12:21:22;;;;;;;0.52;0.52;;;18.90;78.10;;;;;;4434076;32;20070;-69
2022/04/24 12:23:50;;;;;;;0.40;0.40;;;18.80;79.10;;;;;;4427590;32;20074;-68
2022/04/24 12:26:15;;;;;;;0.37;0.37;;;18.70;77.60;;;;;;4428299;32;20123;-68
2022/04/24 12:28:41;;;;;;;1.05;0.62;;;19.00;77.30;;;;;;4428228;32;20077;-68
2022/04/24 12:31:18;;;;;;;0.60;0.60;;;19.80;73.50;;;;;;4430629;32;20077;-68
2022/04/24 12:33:45;;;;;;;0.30;0.30;;;20.70;70.70;;;;;;4429285;32;20061;-68
2022/04/24 12:36:14;;;;;;;0.30;0.30;;;21.50;69.00;;;;;;4429877;32;20375;-68
2022/04/24 12:38:56;;;;;;;0.30;0.30;;;22.30;64.40;;;;;;4429509;32;20077;-69
2022/04/24 12:41:25;;;;;;;0.30;0.30;;;22.40;64.50;;;;;;4430935;32;20474;-67
2022/04/24 12:43:51;;;;;;;0.20;0.20;;;23.10;64.10;;;;;;4426394;32;20093;-69
2022/04/24 12:46:17;;;;;;;0.45;0.45;;;23.30;62.80;;;;;;4429599;32;20077;-68
2022/04/24 12:48:52;;;;;;;0.40;0.40;;;23.70;63.60;;;;;;4429942;32;20092;-68
2022/04/24 12:51:19;;;;;;;0.30;0.30;;;23.30;63.80;;;;;;4430205;32;20101;-68